This is the latest recevied weather packets stored in our database for station/object K1FFK-1. If no packets are shown the sender has not sent any weather packets the latest 10 day(s).
| Time | Temp. | Humidity | Pressure | Rain* | Wind** | Luminosity | Snow |
|---|---|---|---|---|---|---|---|
| 1777370493 | 6.67° C | 64% | 1024.1 hPa | 0 mm | - | - | - |
| 1777369893 | 6.11° C | 65% | 1024.2 hPa | 0 mm | - | - | - |
| 1777369294 | 6.11° C | 65% | 1024.4 hPa | 0 mm | - | - | - |
| 1777368694 | 6.11° C | 63% | 1024.2 hPa | 0 mm | - | - | - |
| 1777368094 | 6.11° C | 64% | 1024.3 hPa | 0 mm | - | - | - |
| 1777367494 | 6.11° C | 66% | 1024.5 hPa | 0 mm | - | - | - |
| 1777366894 | 5.56° C | 68% | 1024.5 hPa | 0 mm | - | - | - |
| 1777366294 | 5.56° C | 69% | 1024.6 hPa | 0 mm | - | - | - |
| 1777365694 | 5.56° C | 70% | 1024.7 hPa | 0 mm | - | - | - |
| 1777365093 | 5.56° C | 70% | 1024.8 hPa | 0 mm | - | - | - |
| 1777364493 | 6.11° C | 70% | 1024.9 hPa | 0 mm | - | - | - |
| 1777363894 | 6.11° C | 66% | 1025 hPa | 0 mm | - | - | - |
| 1777363294 | 6.67° C | 61% | 1024.8 hPa | 0 mm | - | - | - |
| 1777362694 | 6.67° C | 61% | 1024.9 hPa | 0 mm | - | - | - |
| 1777362094 | 7.22° C | 61% | 1024.7 hPa | 0 mm | - | - | - |
| 1777361494 | 7.22° C | 60% | 1024.7 hPa | 0 mm | - | - | - |
| 1777360894 | 6.67° C | 62% | 1024.8 hPa | 0 mm | - | - | - |
| 1777360294 | 6.67° C | 64% | 1024.9 hPa | 0 mm | - | - | - |
| 1777359694 | 6.67° C | 63% | 1024.9 hPa | 0 mm | - | - | - |
| 1777359094 | 6.67° C | 62% | 1024.9 hPa | 0 mm | - | - | - |
| 1777358493 | 7.22° C | 60% | 1025 hPa | 0 mm | - | - | - |
| 1777357894 | 7.22° C | 60% | 1024.9 hPa | 0 mm | - | - | - |
| 1777357294 | 7.22° C | 58% | 1024.9 hPa | 0 mm | - | - | - |
| 1777356693 | 7.22° C | 58% | 1025 hPa | 0 mm | - | - | - |
| 1777356094 | 7.22° C | 58% | 1025.2 hPa | 0 mm | - | - | - |
* Rain latest hour (hover to see other rain measurements)
** Current wind speed in m/s (hover to see current wind gust speed)